createdAt,value
2023-03-13T00:01:42.459Z,-4.73
2023-03-13T00:04:09.286Z,-4.76
2023-03-13T00:06:38.196Z,-4.78
2023-03-13T00:09:08.169Z,-4.82
2023-03-13T00:11:35.038Z,-4.81
2023-03-13T00:14:03.803Z,-4.77
2023-03-13T00:16:31.460Z,-4.73
2023-03-13T00:18:59.103Z,-4.69
2023-03-13T00:21:28.707Z,-4.68
2023-03-13T00:23:56.305Z,-4.67
2023-03-13T00:26:25.825Z,-4.66
2023-03-13T00:28:53.855Z,-4.65
2023-03-13T00:31:23.687Z,-4.64
2023-03-13T00:33:54.145Z,-4.64
2023-03-13T00:36:27.174Z,-4.63
2023-03-13T00:38:55.091Z,-4.63
2023-03-13T00:41:24.469Z,-4.65
2023-03-13T00:43:52.006Z,-4.68
2023-03-13T00:46:20.854Z,-4.71
2023-03-13T00:48:48.588Z,-4.77
2023-03-13T00:51:16.847Z,-4.85
2023-03-13T00:53:44.125Z,-4.93
2023-03-13T00:56:13.228Z,-5.01
2023-03-13T00:58:41.913Z,-5.02
2023-03-13T01:01:14.782Z,-5.02
2023-03-13T01:03:43.650Z,-5.02
2023-03-13T01:06:12.964Z,-5.00
2023-03-13T01:08:40.264Z,-4.99
2023-03-13T01:11:13.248Z,-4.98
2023-03-13T01:13:40.494Z,-5.01
2023-03-13T01:16:18.718Z,-5.06
2023-03-13T01:18:48.598Z,-5.10
2023-03-13T01:21:16.722Z,-5.16
2023-03-13T01:23:43.371Z,-5.21
2023-03-13T01:26:10.296Z,-5.24
2023-03-13T01:28:37.401Z,-5.27
2023-03-13T01:31:19.286Z,-5.31
2023-03-13T01:33:47.636Z,-5.31
2023-03-13T01:36:15.093Z,-5.33
2023-03-13T01:38:41.761Z,-5.36
2023-03-13T01:41:11.335Z,-5.39
2023-03-13T01:43:38.240Z,-5.46
2023-03-13T01:46:18.908Z,-5.54
2023-03-13T01:49:14.698Z,-5.59
2023-03-13T01:51:46.113Z,-5.64
2023-03-13T01:54:22.735Z,-5.78
2023-03-13T01:57:03.906Z,-5.90
2023-03-13T02:00:08.114Z,-5.94
2023-03-13T02:02:36.856Z,-5.96
2023-03-13T02:05:06.425Z,-5.99
2023-03-13T02:07:47.581Z,-5.99
2023-03-13T02:10:18.008Z,-5.95
2023-03-13T02:12:45.129Z,-5.88
2023-03-13T02:15:13.531Z,-5.83
2023-03-13T02:17:42.145Z,-5.83
2023-03-13T02:20:10.319Z,-5.87
2023-03-13T02:22:42.958Z,-5.90
2023-03-13T02:25:24.497Z,-5.90
2023-03-13T02:28:33.822Z,-5.92
2023-03-13T02:31:01.930Z,-5.98
2023-03-13T02:33:32.897Z,-6.03
2023-03-13T02:36:01.591Z,-6.09
2023-03-13T02:38:31.352Z,-6.10
2023-03-13T02:41:00.855Z,-6.10
2023-03-13T02:43:33.105Z,-6.10
2023-03-13T02:46:12.813Z,-6.10
2023-03-13T02:48:42.817Z,-6.12
2023-03-13T02:51:34.034Z,-6.12
2023-03-13T02:54:06.559Z,-6.14
2023-03-13T02:56:36.433Z,-6.16
2023-03-13T02:59:03.217Z,-6.21
2023-03-13T03:01:29.817Z,-6.25
2023-03-13T03:03:56.480Z,-6.27
2023-03-13T03:06:23.131Z,-6.27
2023-03-13T03:08:49.898Z,-6.24
2023-03-13T03:11:16.587Z,-6.21
2023-03-13T03:13:43.350Z,-6.18
2023-03-13T03:16:13.538Z,-6.20
2023-03-13T03:18:40.199Z,-6.23
2023-03-13T03:21:07.128Z,-6.33
2023-03-13T03:23:35.092Z,-6.40
2023-03-13T03:26:03.025Z,-6.46
2023-03-13T03:28:29.785Z,-6.48
2023-03-13T03:30:56.626Z,-6.47
2023-03-13T03:33:24.447Z,-6.44
2023-03-13T03:35:51.205Z,-6.40
2023-03-13T03:38:17.894Z,-6.40
2023-03-13T03:40:44.497Z,-6.38
2023-03-13T03:43:11.240Z,-6.40
2023-03-13T03:45:37.916Z,-6.42
2023-03-13T03:48:04.904Z,-6.47
2023-03-13T03:50:31.578Z,-6.48
2023-03-13T03:52:58.183Z,-6.50
2023-03-13T03:55:24.878Z,-6.51
2023-03-13T03:57:51.636Z,-6.51
2023-03-13T04:00:19.542Z,-6.50
2023-03-13T04:02:46.136Z,-6.53
2023-03-13T04:05:12.808Z,-6.55
2023-03-13T04:07:39.688Z,-6.55
2023-03-13T04:10:06.882Z,-6.54
2023-03-13T04:12:33.548Z,-6.53
2023-03-13T04:15:00.172Z,-6.49
2023-03-13T04:17:27.100Z,-6.51
2023-03-13T04:19:53.740Z,-6.53
2023-03-13T04:22:20.597Z,-6.58
2023-03-13T04:24:47.281Z,-6.62
2023-03-13T04:27:13.902Z,-6.63
2023-03-13T04:29:40.588Z,-6.63
2023-03-13T04:32:07.604Z,-6.65
2023-03-13T04:34:34.291Z,-6.65
2023-03-13T04:37:00.976Z,-6.66
2023-03-13T04:39:27.601Z,-6.66
2023-03-13T04:41:55.532Z,-6.64
2023-03-13T04:44:23.190Z,-6.61
2023-03-13T04:46:49.877Z,-6.57
2023-03-13T04:49:16.821Z,-6.49
2023-03-13T04:51:44.451Z,-6.42
2023-03-13T04:54:12.283Z,-6.36
2023-03-13T04:56:43.693Z,-6.29
2023-03-13T04:59:15.154Z,-6.20
2023-03-13T05:01:42.895Z,-6.11
2023-03-13T05:04:10.696Z,-6.06
2023-03-13T05:06:37.496Z,-6.03
2023-03-13T05:09:04.807Z,-6.00
2023-03-13T05:11:31.547Z,-5.96
2023-03-13T05:13:58.194Z,-5.88
2023-03-13T05:16:24.897Z,-5.82
2023-03-13T05:18:51.523Z,-5.74
2023-03-13T05:21:18.216Z,-5.70
2023-03-13T05:23:44.829Z,-5.64
2023-03-13T05:26:11.456Z,-5.58
2023-03-13T05:28:38.059Z,-5.55
2023-03-13T05:31:04.880Z,-5.53
2023-03-13T05:33:31.576Z,-5.49
2023-03-13T05:35:58.235Z,-5.43
2023-03-13T05:38:25.049Z,-5.38
2023-03-13T05:40:51.651Z,-5.36
2023-03-13T05:43:18.272Z,-5.36
2023-03-13T05:45:44.883Z,-5.33
2023-03-13T05:48:11.504Z,-5.30
2023-03-13T05:50:38.208Z,-5.25
2023-03-13T05:53:04.840Z,-5.18
2023-03-13T05:55:31.472Z,-5.11
2023-03-13T05:57:58.148Z,-5.04
2023-03-13T06:00:24.909Z,-5.00
2023-03-13T06:02:51.541Z,-4.93
2023-03-13T06:05:18.193Z,-4.87
2023-03-13T06:07:44.866Z,-4.83
2023-03-13T06:10:11.932Z,-4.76
2023-03-13T06:12:38.732Z,-4.68
2023-03-13T06:15:07.322Z,-4.62
2023-03-13T06:17:34.003Z,-4.53
2023-03-13T06:20:00.723Z,-4.45
2023-03-13T06:22:27.551Z,-4.38
2023-03-13T06:24:54.177Z,-4.29
2023-03-13T06:27:20.939Z,-4.22
2023-03-13T06:29:47.664Z,-4.15
2023-03-13T06:32:14.384Z,-4.06
2023-03-13T06:34:41.049Z,-3.97
2023-03-13T06:37:07.707Z,-3.90
2023-03-13T06:39:34.422Z,-3.81
2023-03-13T06:42:01.063Z,-3.71
2023-03-13T06:44:27.704Z,-3.61
2023-03-13T06:46:54.374Z,-3.49
2023-03-13T06:49:21.134Z,-3.37
2023-03-13T06:51:47.798Z,-3.24
2023-03-13T06:54:14.413Z,-3.11
2023-03-13T06:56:41.082Z,-2.95
2023-03-13T06:59:07.704Z,-2.82
2023-03-13T07:01:34.336Z,-2.69
2023-03-13T07:04:01.005Z,-2.55
2023-03-13T07:06:27.655Z,-2.43
2023-03-13T07:08:54.264Z,-2.30
2023-03-13T07:11:21.025Z,-2.18
2023-03-13T07:13:47.633Z,-2.03
2023-03-13T07:16:14.493Z,-1.88
2023-03-13T07:18:47.444Z,-1.74
2023-03-13T07:21:14.693Z,-1.59
2023-03-13T07:23:41.700Z,-1.45
2023-03-13T07:26:12.704Z,-1.32
2023-03-13T07:28:39.887Z,-1.21
2023-03-13T07:31:12.312Z,-1.11
2023-03-13T07:33:39.348Z,-1.01
2023-03-13T07:36:06.835Z,-0.91
2023-03-13T07:38:33.842Z,-0.83
2023-03-13T07:41:00.524Z,-0.73
2023-03-13T07:43:27.282Z,-0.64
2023-03-13T07:45:55.370Z,-0.56
2023-03-13T07:48:24.120Z,-0.46
2023-03-13T07:50:51.167Z,-0.36
2023-03-13T07:53:21.400Z,-0.30
2023-03-13T07:55:56.566Z,-0.22
2023-03-13T07:58:24.552Z,-0.14
2023-03-13T08:00:51.559Z,-0.08
2023-03-13T08:03:18.515Z,-0.04
2023-03-13T08:05:45.347Z,0.03
2023-03-13T08:08:12.166Z,0.09
2023-03-13T08:10:38.865Z,0.12
2023-03-13T08:13:05.481Z,0.16
2023-03-13T08:15:32.159Z,0.18
2023-03-13T08:17:58.833Z,0.19
2023-03-13T08:20:25.477Z,0.19
2023-03-13T08:22:52.118Z,0.17
2023-03-13T08:25:18.771Z,0.14
2023-03-13T08:27:45.426Z,0.14
2023-03-13T08:30:12.716Z,0.12
2023-03-13T08:32:39.359Z,0.12
2023-03-13T08:35:06.397Z,0.09
2023-03-13T08:37:33.019Z,0.08
2023-03-13T08:39:59.627Z,0.08
2023-03-13T08:42:26.258Z,0.05
2023-03-13T08:44:52.856Z,0.06
2023-03-13T08:47:19.453Z,0.08
2023-03-13T08:49:46.236Z,0.08
2023-03-13T08:52:12.932Z,0.09
2023-03-13T08:54:39.540Z,0.11
2023-03-13T08:57:06.190Z,0.13
2023-03-13T08:59:32.807Z,0.15
2023-03-13T09:01:59.633Z,0.16
2023-03-13T09:04:26.246Z,0.18
2023-03-13T09:06:53.199Z,0.20
2023-03-13T09:09:19.867Z,0.23
2023-03-13T09:11:46.519Z,0.27
2023-03-13T09:14:13.111Z,0.30
2023-03-13T09:16:39.768Z,0.31
2023-03-13T09:19:06.662Z,0.34
2023-03-13T09:21:35.120Z,0.37
2023-03-13T09:24:02.332Z,0.39
2023-03-13T09:26:29.575Z,0.40
2023-03-13T09:28:56.906Z,0.44
2023-03-13T09:31:27.221Z,0.49
2023-03-13T09:33:54.880Z,0.50
2023-03-13T09:36:23.863Z,0.52
2023-03-13T09:38:52.389Z,0.54
2023-03-13T09:41:48.335Z,0.52
2023-03-13T09:44:23.261Z,0.53
2023-03-13T09:47:04.478Z,0.54
2023-03-13T09:49:51.657Z,0.56
2023-03-13T09:52:23.129Z,0.59
2023-03-13T09:54:54.913Z,0.60
2023-03-13T09:57:32.657Z,0.61
2023-03-13T10:00:12.485Z,0.65
2023-03-13T10:02:40.706Z,0.65
2023-03-13T10:05:21.344Z,0.69
2023-03-13T10:07:48.510Z,0.73
2023-03-13T10:10:19.520Z,0.76
2023-03-13T10:12:48.485Z,0.81
2023-03-13T10:15:33.648Z,0.82
2023-03-13T10:18:13.324Z,0.82
2023-03-13T10:20:41.153Z,0.82
2023-03-13T10:23:25.411Z,0.81
2023-03-13T10:25:52.027Z,0.81
2023-03-13T10:28:22.912Z,0.80
2023-03-13T10:30:54.371Z,0.78
2023-03-13T10:33:26.720Z,0.79
2023-03-13T10:36:04.121Z,0.77
2023-03-13T10:38:54.041Z,0.76
2023-03-13T10:41:30.967Z,0.75
2023-03-13T10:44:05.106Z,0.77
2023-03-13T10:46:34.164Z,0.80
2023-03-13T10:49:04.670Z,0.82
2023-03-13T10:51:39.040Z,0.85
2023-03-13T10:54:29.843Z,0.87
2023-03-13T10:57:17.816Z,0.91
2023-03-13T10:59:47.389Z,0.91
2023-03-13T11:02:36.162Z,0.94
2023-03-13T11:05:26.158Z,0.96
2023-03-13T11:07:53.632Z,0.97
2023-03-13T11:10:22.786Z,1.01
2023-03-13T11:12:51.845Z,1.01
2023-03-13T11:15:47.009Z,1.01
2023-03-13T11:18:33.087Z,1.01
2023-03-13T11:21:17.465Z,1.03
2023-03-13T11:23:50.068Z,1.05
2023-03-13T11:26:32.355Z,1.07
2023-03-13T11:29:26.162Z,1.05
2023-03-13T11:32:11.181Z,1.05
2023-03-13T11:34:56.280Z,1.05
2023-03-13T11:37:24.523Z,1.07
2023-03-13T11:40:10.622Z,1.08
2023-03-13T11:42:45.256Z,1.11
2023-03-13T11:45:33.565Z,1.13
2023-03-13T11:48:20.137Z,1.15
2023-03-13T11:50:58.877Z,1.14
2023-03-13T11:53:47.919Z,1.14
2023-03-13T11:56:23.424Z,1.15
2023-03-13T11:59:03.225Z,1.17
2023-03-13T12:01:56.075Z,1.19
2023-03-13T12:04:28.314Z,1.17
2023-03-13T12:07:04.598Z,1.19
2023-03-13T12:09:31.495Z,1.22
2023-03-13T12:12:11.084Z,1.24
2023-03-13T12:14:52.867Z,1.25
2023-03-13T12:17:25.415Z,1.24
2023-03-13T12:19:58.785Z,1.24
2023-03-13T12:22:52.108Z,1.22
2023-03-13T12:25:33.072Z,1.24
2023-03-13T12:28:18.751Z,1.26
2023-03-13T12:30:52.802Z,1.27
2023-03-13T12:33:26.547Z,1.27
2023-03-13T12:36:38.106Z,1.27
2023-03-13T12:39:24.605Z,1.27
2023-03-13T12:42:22.369Z,1.27
2023-03-13T12:44:49.531Z,1.26
2023-03-13T12:47:49.595Z,1.27
2023-03-13T12:50:47.116Z,1.27
2023-03-13T12:53:34.245Z,1.26
2023-03-13T12:56:22.520Z,1.27
2023-03-13T12:58:55.895Z,1.29
2023-03-13T13:01:32.464Z,1.30
2023-03-13T13:04:07.827Z,1.31
2023-03-13T13:07:23.235Z,1.31
2023-03-13T13:10:04.149Z,1.31
2023-03-13T13:12:31.325Z,1.31
2023-03-13T13:15:04.093Z,1.30
2023-03-13T13:17:40.453Z,1.30
2023-03-13T13:20:39.649Z,1.32
2023-03-13T13:23:23.099Z,1.32
2023-03-13T13:25:50.187Z,1.30
2023-03-13T13:28:18.364Z,1.31
2023-03-13T13:30:45.265Z,1.33
2023-03-13T13:33:21.916Z,1.33
2023-03-13T13:36:08.488Z,1.35
2023-03-13T13:38:39.772Z,1.38
2023-03-13T13:41:26.149Z,1.39
2023-03-13T13:44:23.446Z,1.41
2023-03-13T13:46:50.630Z,1.43
2023-03-13T13:49:19.884Z,1.44
2023-03-13T13:52:01.567Z,1.43
2023-03-13T13:54:55.823Z,1.46
2023-03-13T13:57:26.088Z,1.46
2023-03-13T14:00:00.945Z,1.47
2023-03-13T14:02:45.988Z,1.47
2023-03-13T14:05:24.677Z,1.45
2023-03-13T14:07:54.094Z,1.44
2023-03-13T14:10:48.975Z,1.43
2023-03-13T14:13:21.153Z,1.42
2023-03-13T14:15:50.033Z,1.41
2023-03-13T14:18:25.532Z,1.40
2023-03-13T14:21:00.181Z,1.40
2023-03-13T14:23:42.640Z,1.40
2023-03-13T14:26:13.760Z,1.41
2023-03-13T14:28:43.485Z,1.40
2023-03-13T14:31:12.214Z,1.39
2023-03-13T14:33:39.226Z,1.40
2023-03-13T14:36:06.180Z,1.39
2023-03-13T14:38:33.611Z,1.39
2023-03-13T14:41:00.335Z,1.40
2023-03-13T14:43:41.290Z,1.42
2023-03-13T14:46:30.555Z,1.43
2023-03-13T14:48:57.708Z,1.45
2023-03-13T14:51:28.209Z,1.46
2023-03-13T14:54:02.796Z,1.46
2023-03-13T14:56:32.459Z,1.47
2023-03-13T14:59:18.457Z,1.47
2023-03-13T15:01:46.158Z,1.47
2023-03-13T15:04:12.869Z,1.48
2023-03-13T15:06:39.610Z,1.49
2023-03-13T15:09:22.561Z,1.49
2023-03-13T15:12:00.059Z,1.51
2023-03-13T15:14:40.953Z,1.52
2023-03-13T15:17:20.818Z,1.55
2023-03-13T15:19:58.321Z,1.57
2023-03-13T15:22:33.197Z,1.59
2023-03-13T15:25:08.114Z,1.59
2023-03-13T15:27:35.493Z,1.60
2023-03-13T15:30:02.419Z,1.64
2023-03-13T15:32:33.385Z,1.66
2023-03-13T15:35:02.008Z,1.71
2023-03-13T15:37:30.268Z,1.74
2023-03-13T15:39:57.796Z,1.77
2023-03-13T15:42:25.595Z,1.80
2023-03-13T15:44:52.252Z,1.84
2023-03-13T15:47:21.283Z,1.87
2023-03-13T15:49:48.238Z,1.94
2023-03-13T15:52:22.471Z,1.98
2023-03-13T15:54:50.473Z,2.04
2023-03-13T15:57:24.339Z,2.08
2023-03-13T15:59:52.425Z,2.13
2023-03-13T16:02:21.900Z,2.18
2023-03-13T16:04:49.092Z,2.21
2023-03-13T16:07:19.813Z,2.28
2023-03-13T16:09:47.269Z,2.31
2023-03-13T16:12:13.970Z,2.35
2023-03-13T16:14:41.038Z,2.40
2023-03-13T16:17:28.263Z,2.44
2023-03-13T16:19:55.705Z,2.49
2023-03-13T16:22:22.344Z,2.51
2023-03-13T16:24:48.949Z,2.54
2023-03-13T16:27:18.221Z,2.57
2023-03-13T16:29:46.112Z,2.58
2023-03-13T16:32:16.374Z,2.61
2023-03-13T16:34:43.452Z,2.65
2023-03-13T16:37:14.798Z,2.68
2023-03-13T16:39:42.098Z,2.71
2023-03-13T16:42:08.804Z,2.74
2023-03-13T16:44:35.451Z,2.76
2023-03-13T16:47:06.506Z,2.79
2023-03-13T16:49:33.358Z,2.82
2023-03-13T16:51:59.958Z,2.85
2023-03-13T16:54:26.612Z,2.87
2023-03-13T16:56:53.383Z,2.89
2023-03-13T16:59:20.021Z,2.91
2023-03-13T17:01:49.625Z,2.91
2023-03-13T17:04:16.228Z,2.93
2023-03-13T17:06:44.782Z,2.94
2023-03-13T17:09:17.296Z,2.96
2023-03-13T17:11:44.351Z,2.97
2023-03-13T17:14:11.416Z,2.99
2023-03-13T17:16:47.486Z,2.98
2023-03-13T17:19:15.328Z,2.99
2023-03-13T17:21:42.347Z,3.00
2023-03-13T17:24:09.133Z,3.03
2023-03-13T17:26:38.297Z,3.04
2023-03-13T17:29:06.794Z,3.06
2023-03-13T17:31:37.543Z,3.07
2023-03-13T17:34:05.288Z,3.09
2023-03-13T17:36:31.977Z,3.10
2023-03-13T17:39:00.674Z,3.13
2023-03-13T17:41:32.759Z,3.16
2023-03-13T17:43:59.651Z,3.19
2023-03-13T17:46:34.978Z,3.23
2023-03-13T17:49:01.784Z,3.25
2023-03-13T17:51:31.514Z,3.29
2023-03-13T17:53:59.228Z,3.34
2023-03-13T17:56:28.372Z,3.37
2023-03-13T17:58:58.184Z,3.40
2023-03-13T18:01:30.146Z,3.42
2023-03-13T18:03:57.413Z,3.44
2023-03-13T18:06:29.855Z,3.48
2023-03-13T18:08:59.871Z,3.52
2023-03-13T18:11:26.919Z,3.54
2023-03-13T18:13:53.987Z,3.55
2023-03-13T18:16:38.153Z,3.59
2023-03-13T18:19:15.332Z,3.62
2023-03-13T18:21:43.723Z,3.63
2023-03-13T18:24:11.895Z,3.64
2023-03-13T18:26:40.227Z,3.67
2023-03-13T18:29:17.894Z,3.67
2023-03-13T18:31:45.353Z,3.69
2023-03-13T18:34:12.663Z,3.70
2023-03-13T18:36:39.617Z,3.72
2023-03-13T18:39:06.680Z,3.74
2023-03-13T18:41:34.374Z,3.76
2023-03-13T18:44:04.053Z,3.78
2023-03-13T18:46:33.480Z,3.79
2023-03-13T18:49:03.764Z,3.81
2023-03-13T18:51:30.872Z,3.84
2023-03-13T18:53:57.531Z,3.84
2023-03-13T18:56:27.714Z,3.87
2023-03-13T18:58:55.745Z,3.88
2023-03-13T19:01:24.769Z,3.92
2023-03-13T19:03:52.367Z,3.97
2023-03-13T19:06:24.181Z,3.99
2023-03-13T19:08:54.196Z,4.02
2023-03-13T19:11:24.104Z,4.03
2023-03-13T19:13:50.963Z,4.04
2023-03-13T19:16:27.278Z,4.07
2023-03-13T19:18:54.199Z,4.11
2023-03-13T19:21:26.447Z,4.12
2023-03-13T19:23:53.734Z,4.15
2023-03-13T19:26:35.338Z,4.19
2023-03-13T19:29:02.165Z,4.23
2023-03-13T19:31:28.878Z,4.28
2023-03-13T19:33:55.566Z,4.30
2023-03-13T19:36:24.293Z,4.34
2023-03-13T19:38:51.660Z,4.36
2023-03-13T19:41:18.321Z,4.40
2023-03-13T19:43:47.820Z,4.44
2023-03-13T19:46:17.100Z,4.50
2023-03-13T19:48:43.757Z,4.54
2023-03-13T19:51:10.493Z,4.60
2023-03-13T19:53:37.187Z,4.65
2023-03-13T19:56:21.462Z,4.69
2023-03-13T19:58:50.589Z,4.73
2023-03-13T20:01:18.130Z,4.75
2023-03-13T20:03:45.949Z,4.79
2023-03-13T20:06:20.788Z,4.81
2023-03-13T20:08:48.470Z,4.84
2023-03-13T20:11:16.259Z,4.89
2023-03-13T20:13:42.959Z,4.92
2023-03-13T20:16:11.602Z,4.95
2023-03-13T20:18:40.091Z,4.99
2023-03-13T20:21:07.154Z,5.02
2023-03-13T20:23:33.777Z,5.03
2023-03-13T20:26:08.413Z,5.06
2023-03-13T20:28:38.938Z,5.10
2023-03-13T20:31:06.786Z,5.15
2023-03-13T20:33:34.812Z,5.17
2023-03-13T20:36:10.752Z,5.21
2023-03-13T20:38:38.379Z,5.26
2023-03-13T20:41:05.708Z,5.27
2023-03-13T20:43:33.251Z,5.28
2023-03-13T20:45:59.900Z,5.32
2023-03-13T20:48:27.631Z,5.33
2023-03-13T20:50:56.238Z,5.35
2023-03-13T20:53:24.396Z,5.39
2023-03-13T20:55:52.095Z,5.41
2023-03-13T20:58:21.990Z,5.44
2023-03-13T21:00:49.065Z,5.46
2023-03-13T21:03:17.365Z,5.49
2023-03-13T21:05:44.656Z,5.51
2023-03-13T21:08:11.801Z,5.51
2023-03-13T21:10:40.279Z,5.52
2023-03-13T21:13:08.208Z,5.54
2023-03-13T21:15:35.554Z,5.54
2023-03-13T21:18:02.898Z,5.57
2023-03-13T21:20:30.159Z,5.56
2023-03-13T21:22:57.369Z,5.59
2023-03-13T21:25:24.546Z,5.61
2023-03-13T21:27:51.375Z,5.62
2023-03-13T21:30:21.291Z,5.62
2023-03-13T21:32:48.612Z,5.62
2023-03-13T21:35:16.853Z,5.61
2023-03-13T21:37:44.132Z,5.61
2023-03-13T21:40:12.355Z,5.59
2023-03-13T21:42:39.288Z,5.58
2023-03-13T21:45:07.750Z,5.59
2023-03-13T21:47:37.429Z,5.58
2023-03-13T21:50:10.094Z,5.60
2023-03-13T21:52:40.822Z,5.60
2023-03-13T21:55:11.637Z,5.59
2023-03-13T21:57:38.390Z,5.58
2023-03-13T22:00:08.257Z,5.60
2023-03-13T22:02:36.185Z,5.57
2023-03-13T22:05:04.316Z,5.56
2023-03-13T22:07:31.087Z,5.55
2023-03-13T22:09:58.525Z,5.54
2023-03-13T22:12:25.800Z,5.52
2023-03-13T22:14:53.235Z,5.51
2023-03-13T22:17:20.593Z,5.50
2023-03-13T22:19:47.621Z,5.48
2023-03-13T22:22:14.894Z,5.49
2023-03-13T22:24:42.180Z,5.49
2023-03-13T22:27:12.842Z,5.49
2023-03-13T22:29:39.569Z,5.51
2023-03-13T22:32:06.218Z,5.52
2023-03-13T22:34:33.254Z,5.53
2023-03-13T22:36:59.905Z,5.58
2023-03-13T22:39:26.533Z,5.59
2023-03-13T22:41:53.135Z,5.63
2023-03-13T22:44:19.802Z,5.65
2023-03-13T22:46:46.418Z,5.65
2023-03-13T22:49:13.041Z,5.66
2023-03-13T22:51:39.684Z,5.65
2023-03-13T22:54:06.296Z,5.66
2023-03-13T22:56:33.025Z,5.65
2023-03-13T22:58:59.849Z,5.65
2023-03-13T23:01:26.711Z,5.65
2023-03-13T23:03:53.394Z,5.64
2023-03-13T23:06:23.493Z,5.63
2023-03-13T23:08:50.733Z,5.59
2023-03-13T23:11:18.445Z,5.60
2023-03-13T23:13:45.177Z,5.59
2023-03-13T23:16:12.691Z,5.62
2023-03-13T23:18:40.010Z,5.62
2023-03-13T23:21:10.310Z,5.63
2023-03-13T23:23:37.252Z,5.64
2023-03-13T23:26:05.698Z,5.65
2023-03-13T23:28:34.048Z,5.66
2023-03-13T23:31:07.871Z,5.68
2023-03-13T23:33:34.483Z,5.68
2023-03-13T23:36:08.263Z,5.70
2023-03-13T23:38:35.022Z,5.73
2023-03-13T23:41:09.055Z,5.77
2023-03-13T23:43:37.302Z,5.77
2023-03-13T23:46:04.805Z,5.79
2023-03-13T23:48:31.969Z,5.81
2023-03-13T23:50:58.746Z,5.81
2023-03-13T23:53:25.404Z,5.82
2023-03-13T23:55:58.594Z,5.83
2023-03-13T23:58:25.534Z,5.82
